Time;durP1;ratioP1;P1;durP2;ratioP2;P2;SDS_P1;SDS_P2;PMS_P1;PMS_P2;Temp;Humidity;BMP_temperature;BMP_pressure;BME280_temperature;BME280_humidity;BME280_pressure;Samples;Min_cycle;Max_cycle;Signal;HPM_P1;HPM_P2
2022/08/15 00:00:30;;;;;;;2.97;1.50;;;;;;;27.51;43.16;99915.72;5013314;28;20044;-79
2022/08/15 00:03:18;;;;;;;1.70;1.52;;;;;;;27.52;43.27;99919.28;5013873;28;20414;-79
2022/08/15 00:06:10;;;;;;;1.90;1.20;;;;;;;27.49;43.37;99914.56;5013508;28;20045;-79
2022/08/15 00:08:59;;;;;;;8.50;2.20;;;;;;;27.56;43.53;99915.13;5013509;28;20113;-78
2022/08/15 00:11:47;;;;;;;2.40;1.63;;;;;;;27.56;43.53;99914.34;5013512;28;20069;-79
2022/08/15 00:14:35;;;;;;;4.60;2.05;;;;;;;27.55;43.44;99902.41;5017258;28;20057;-79
2022/08/15 00:17:20;;;;;;;7.15;1.80;;;;;;;27.43;43.70;99897.56;5001357;28;20057;-79
2022/08/15 00:20:09;;;;;;;5.25;1.73;;;;;;;27.39;43.57;99887.75;5013225;28;20049;-79
2022/08/15 00:22:54;;;;;;;1.73;1.63;;;;;;;27.34;43.66;99888.31;5006971;28;20419;-79
2022/08/15 00:25:44;;;;;;;3.10;1.85;;;;;;;27.31;43.67;99887.22;5019921;28;20057;-79
2022/08/15 00:28:29;;;;;;;4.53;2.00;;;;;;;27.31;44.12;99887.22;5018882;28;20068;-80
2022/08/15 00:31:15;;;;;;;2.95;1.83;;;;;;;27.27;43.98;99883.00;5008499;28;20056;-79
2022/08/15 00:34:00;;;;;;;4.43;1.60;;;;;;;27.27;44.06;99880.22;5006262;28;20045;-79
2022/08/15 00:36:48;;;;;;;6.05;1.75;;;;;;;27.22;43.70;99879.53;5002751;28;20041;-79
2022/08/15 00:39:33;;;;;;;3.17;1.60;;;;;;;27.20;44.05;99881.22;5021190;28;20054;-79
2022/08/15 00:42:23;;;;;;;3.65;1.40;;;;;;;27.19;44.32;99891.59;5016176;28;20061;-79
2022/08/15 00:45:10;;;;;;;3.28;2.00;;;;;;;27.17;44.22;99894.03;5001946;28;20053;-79
2022/08/15 00:51:01;;;;;;;3.08;1.27;;;;;;;27.17;44.42;99882.88;4992664;28;20530;-81
2022/08/15 00:53:52;;;;;;;2.90;1.67;;;;;;;27.17;44.61;99880.09;4996556;28;20050;-82
2022/08/15 00:56:55;;;;;;;3.05;1.52;;;;;;;27.18;44.87;99878.84;5003886;28;20121;-82
2022/08/15 00:59:51;;;;;;;4.65;1.25;;;;;;;27.16;44.45;99884.13;4970283;28;20038;-82
2022/08/15 01:02:36;;;;;;;5.10;1.85;;;;;;;27.14;44.71;99878.19;4976333;28;20054;-82
2022/08/15 01:05:22;;;;;;;4.00;2.00;;;;;;;27.12;44.69;99875.06;4973299;28;20054;-82
2022/08/15 01:08:07;;;;;;;9.00;1.80;;;;;;;27.08;44.48;99882.78;4967319;28;20046;-82
2022/08/15 01:10:56;;;;;;;4.75;1.70;;;;;;;27.09;44.67;99884.34;4968451;28;20058;-82
2022/08/15 01:13:42;;;;;;;3.97;1.52;;;;;;;27.08;44.59;99885.56;4965671;28;20050;-82
2022/08/15 01:16:28;;;;;;;1.98;1.48;;;;;;;27.05;44.69;99883.69;4964587;28;20050;-82
2022/08/15 01:19:23;;;;;;;5.97;1.52;;;;;;;27.08;44.95;99882.00;4963617;28;20050;-82
2022/08/15 01:22:07;;;;;;;2.72;1.63;;;;;;;27.06;44.70;99879.66;4965690;29;20045;-82
2022/08/15 01:24:53;;;;;;;6.75;1.30;;;;;;;27.06;44.89;99881.69;4963629;29;20050;-82
2022/08/15 01:27:46;;;;;;;1.67;1.30;;;;;;;27.05;45.13;99874.53;4962916;28;20059;-82
2022/08/15 01:30:36;;;;;;;12.95;2.35;;;;;;;27.03;44.80;99872.19;4963439;29;20058;-82
2022/08/15 01:33:21;;;;;;;2.10;1.63;;;;;;;27.00;44.72;99881.47;4964347;29;20054;-82
2022/08/15 01:36:08;;;;;;;5.63;1.30;;;;;;;27.00;44.98;99875.09;4962938;29;20058;-82
2022/08/15 01:39:18;;;;;;;4.00;1.58;;;;;;;26.99;44.69;99874.31;4963411;28;20046;-82
2022/08/15 01:42:22;;;;;;;6.22;1.52;;;;;;;26.95;45.12;99870.84;4962288;29;20423;-82
2022/08/15 01:45:14;;;;;;;2.10;1.40;;;;;;;26.95;45.12;99872.84;4965182;29;20042;-82
2022/08/15 01:48:02;;;;;;;3.90;1.40;;;;;;;26.95;45.06;99872.84;4960373;28;20050;-82
2022/08/15 01:50:50;;;;;;;2.38;1.45;;;;;;;26.93;45.07;99872.50;4967476;28;20526;-82
2022/08/15 01:53:42;;;;;;;3.28;1.45;;;;;;;26.93;45.13;99872.50;4982223;28;20123;-84
2022/08/15 01:56:33;;;;;;;1.85;1.42;;;;;;;26.94;45.16;99866.50;4972368;28;20046;-82
2022/08/15 01:59:22;;;;;;;3.47;1.40;;;;;;;26.91;45.09;99870.19;4981277;28;20049;-82
2022/08/15 02:02:11;;;;;;;3.55;1.50;;;;;;;26.92;45.31;99865.41;4991730;28;20045;-82
2022/08/15 02:04:56;;;;;;;3.33;1.27;;;;;;;26.89;45.10;99866.28;4988648;28;20057;-82
2022/08/15 02:07:41;;;;;;;4.00;1.52;;;;;;;26.88;45.12;99865.50;4983201;28;20522;-82
2022/08/15 02:10:28;;;;;;;4.65;1.63;;;;;;;26.87;45.18;99869.50;4982092;28;20069;-82
2022/08/15 02:13:15;;;;;;;2.15;1.63;;;;;;;26.87;45.17;99866.72;4989478;28;20046;-82
2022/08/15 02:16:01;;;;;;;3.65;1.70;;;;;;;26.86;45.27;99862.34;4986909;28;20070;-81
2022/08/15 02:18:45;;;;;;;1.60;1.40;;;;;;;26.83;45.23;99863.22;4985533;28;20049;-82
2022/08/15 02:21:31;;;;;;;3.20;1.70;;;;;;;26.82;45.30;99864.44;4988960;28;20053;-82
2022/08/15 02:24:20;;;;;;;2.22;1.65;;;;;;;26.82;45.07;99858.88;4985833;28;20054;-82
2022/08/15 02:27:08;;;;;;;1.92;1.50;;;;;;;26.81;45.56;99865.69;4986292;28;20050;-81
2022/08/15 02:29:53;;;;;;;3.35;1.40;;;;;;;26.81;45.25;99862.91;4988117;28;20054;-83
2022/08/15 02:32:41;;;;;;;3.42;1.90;;;;;;;26.80;45.16;99864.91;4985955;28;20058;-82
2022/08/15 02:35:28;;;;;;;5.82;1.75;;;;;;;26.79;45.35;99860.56;4985362;28;20046;-82
2022/08/15 02:38:13;;;;;;;2.85;1.95;;;;;;;26.77;45.46;99857.41;4985345;28;20054;-82
2022/08/15 02:40:59;;;;;;;3.47;2.20;;;;;;;26.75;45.27;99859.09;4986407;28;20072;-82
2022/08/15 02:43:45;;;;;;;2.85;1.80;;;;;;;26.73;45.42;99859.53;4984932;28;20050;-81
2022/08/15 02:46:31;;;;;;;3.22;2.28;;;;;;;26.70;46.51;99854.09;4988665;28;20054;-82
2022/08/15 02:49:19;;;;;;;3.63;2.13;;;;;;;26.67;47.09;99854.97;4984859;28;20539;-81
2022/08/15 02:52:05;;;;;;;2.70;2.20;;;;;;;26.66;47.55;99854.19;4985457;28;20058;-82
2022/08/15 02:54:50;;;;;;;3.88;2.47;;;;;;;26.68;47.59;99862.09;4984538;28;20050;-82
2022/08/15 02:57:36;;;;;;;3.25;2.13;;;;;;;26.67;47.72;99864.13;4986146;28;20053;-81
2022/08/15 03:00:21;;;;;;;4.00;2.42;;;;;;;26.66;48.29;99859.78;4984849;28;20050;-81
2022/08/15 03:03:11;;;;;;;4.40;2.85;;;;;;;26.66;48.78;99859.00;4988392;28;20054;-81
2022/08/15 03:05:57;;;;;;;3.20;2.60;;;;;;;26.63;48.58;99854.28;4979830;28;20054;-80
2022/08/15 03:08:42;;;;;;;3.50;2.53;;;;;;;26.60;48.95;99853.19;4979184;28;20408;-81
2022/08/15 03:11:29;;;;;;;4.43;2.60;;;;;;;26.60;49.30;99852.41;4986944;28;20061;-81
2022/08/15 03:14:18;;;;;;;3.92;2.17;;;;;;;26.58;50.18;99852.84;4985985;28;20053;-82
2022/08/15 03:17:05;;;;;;;2.70;2.25;;;;;;;26.55;50.41;99853.75;4984686;28;20045;-82
2022/08/15 03:19:50;;;;;;;4.68;2.55;;;;;;;26.54;49.76;99856.97;4987560;28;20049;-82
2022/08/15 03:22:41;;;;;;;3.45;2.60;;;;;;;26.54;48.57;99856.97;4979420;28;20050;-81
2022/08/15 03:25:26;;;;;;;4.07;2.67;;;;;;;26.53;48.24;99847.03;4989548;28;20041;-81
2022/08/15 03:28:12;;;;;;;2.75;2.35;;;;;;;26.52;47.76;99859.41;4986745;28;20061;-82
2022/08/15 03:31:02;;;;;;;4.75;2.10;;;;;;;26.51;47.89;99855.09;4985807;28;20061;-81
2022/08/15 03:33:48;;;;;;;3.95;2.25;;;;;;;26.51;47.94;99858.66;4989313;28;20053;-82
2022/08/15 03:36:36;;;;;;;3.30;1.90;;;;;;;26.51;47.65;99855.09;4987941;28;20050;-82
2022/08/15 03:39:21;;;;;;;2.33;1.60;;;;;;;26.52;47.42;99853.84;4983186;28;20049;-81
2022/08/15 03:42:08;;;;;;;4.15;2.17;;;;;;;26.53;47.07;99855.41;4989895;28;20049;-82
2022/08/15 03:44:54;;;;;;;2.53;2.30;;;;;;;26.50;47.50;99859.09;4986683;28;20049;-82
2022/08/15 03:47:40;;;;;;;2.58;1.92;;;;;;;26.48;48.14;99853.94;4985595;28;20053;-81
2022/08/15 03:50:26;;;;;;;5.10;2.20;;;;;;;26.45;48.56;99868.00;4984440;28;20053;-82
2022/08/15 03:53:15;;;;;;;5.82;2.55;;;;;;;26.44;49.19;99866.44;4985346;28;20057;-82
2022/08/15 03:56:03;;;;;;;5.82;2.85;;;;;;;26.42;48.53;99860.50;4983212;28;20058;-82
2022/08/15 03:58:55;;;;;;;2.72;2.42;;;;;;;26.37;49.06;99861.84;4984015;28;20065;-81
2022/08/15 04:01:41;;;;;;;6.97;2.95;;;;;;;26.32;48.86;99862.41;4984535;28;20069;-82
2022/08/15 04:04:26;;;;;;;4.90;3.08;;;;;;;26.29;49.56;99863.28;4984162;28;20049;-81
2022/08/15 04:07:12;;;;;;;5.82;4.03;;;;;;;26.26;49.72;99862.16;4989174;28;20057;-83
2022/08/15 04:10:00;;;;;;;5.65;4.35;;;;;;;26.23;49.58;99865.84;4984404;28;20058;-82
2022/08/15 04:12:47;;;;;;;6.65;4.18;;;;;;;26.21;49.08;99862.66;4985117;28;20050;-82
2022/08/15 04:15:34;;;;;;;9.77;5.50;;;;;;;26.20;48.45;99860.34;4988872;28;20053;-82
2022/08/15 04:18:20;;;;;;;7.32;4.97;;;;;;;26.20;47.65;99871.50;4986266;28;20242;-82
2022/08/15 04:21:10;;;;;;;9.02;4.13;;;;;;;26.19;47.46;99864.34;4972636;28;20046;-82
2022/08/15 04:23:56;;;;;;;8.95;4.68;;;;;;;26.16;47.10;99854.84;4974557;28;20050;-82
2022/08/15 04:26:41;;;;;;;11.43;5.28;;;;;;;26.17;46.66;99859.22;4970176;28;20046;-82
2022/08/15 04:29:26;;;;;;;13.35;5.15;;;;;;;26.17;46.19;99862.00;4983188;28;20050;-82
2022/08/15 04:32:12;;;;;;;13.02;5.43;;;;;;;26.20;45.98;99863.91;4982970;28;20062;-82
2022/08/15 04:34:58;;;;;;;9.38;4.05;;;;;;;26.19;46.36;99862.34;4974186;28;20057;-82
2022/08/15 04:37:44;;;;;;;5.75;3.83;;;;;;;26.19;46.94;99867.94;4966243;28;20046;-82
2022/08/15 04:40:29;;;;;;;11.70;3.95;;;;;;;26.19;47.30;99867.94;4983674;28;20050;-82
2022/08/15 04:43:19;;;;;;;7.45;3.90;;;;;;;26.21;47.86;99868.25;4986884;28;20053;-82
2022/08/15 04:46:07;;;;;;;6.60;3.47;;;;;;;26.19;48.79;99870.72;4974312;28;20050;-82
2022/08/15 04:48:53;;;;;;;4.88;3.55;;;;;;;26.19;49.02;99870.72;4967383;28;20038;-82
2022/08/15 04:51:38;;;;;;;5.47;3.50;;;;;;;26.19;49.20;99875.50;4947237;29;20059;-82
2022/08/15 04:54:26;;;;;;;3.72;2.80;;;;;;;26.18;49.67;99885.06;4944448;29;20055;-81
2022/08/15 04:57:27;;;;;;;4.47;3.00;;;;;;;26.16;49.93;99877.16;4984610;28;20065;-82
2022/08/15 05:00:15;;;;;;;7.72;3.67;;;;;;;26.19;49.64;99884.66;4969226;28;20047;-82
2022/08/15 05:03:29;;;;;;;5.78;3.05;;;;;;;26.15;50.88;99892.34;4976843;28;20054;-82
2022/08/15 05:06:18;;;;;;;5.03;2.80;;;;;;;26.12;51.72;99892.41;4969335;28;20054;-81
2022/08/15 05:09:03;;;;;;;8.15;3.50;;;;;;;26.08;51.25;99889.75;4979156;28;20046;-82
2022/08/15 05:11:49;;;;;;;4.72;2.88;;;;;;;26.03;50.56;99895.84;4981486;28;20058;-82
2022/08/15 05:14:34;;;;;;;5.47;2.85;;;;;;;26.04;50.60;99897.41;4986064;28;20049;-81
2022/08/15 05:17:19;;;;;;;6.22;2.00;;;;;;;26.05;50.23;99890.63;4982703;28;21518;-82
2022/08/15 05:20:06;;;;;;;4.50;2.50;;;;;;;26.06;50.33;99897.00;4982181;28;20046;-81
2022/08/15 05:22:55;;;;;;;3.92;3.05;;;;;;;26.03;50.24;99907.00;4985152;28;20058;-80
2022/08/15 05:25:44;;;;;;;5.88;2.78;;;;;;;26.03;49.93;99904.22;4983744;28;20053;-81
2022/08/15 05:28:29;;;;;;;7.80;3.15;;;;;;;26.03;49.57;99907.00;4971751;28;20046;-82
2022/08/15 05:31:15;;;;;;;8.93;5.10;;;;;;;26.03;49.50;99909.00;4973349;28;20051;-82
2022/08/15 05:34:03;;;;;;;7.10;4.32;;;;;;;26.04;49.16;99908.56;4983658;28;20050;-81
2022/08/15 05:36:53;;;;;;;7.22;4.80;;;;;;;26.04;49.40;99903.00;4986584;28;20046;-81
2022/08/15 05:39:41;;;;;;;5.80;3.80;;;;;;;26.01;49.06;99898.28;4985556;28;20050;-81
2022/08/15 05:42:54;;;;;;;10.15;5.47;;;;;;;26.04;48.76;99908.56;4982929;28;20054;-82
2022/08/15 05:45:49;;;;;;;9.05;4.30;;;;;;;26.04;48.46;99905.78;4985401;28;20041;-80
2022/08/15 05:48:34;;;;;;;7.15;5.07;;;;;;;26.05;48.16;99912.13;4983995;28;20554;-81
2022/08/15 05:51:35;;;;;;;6.60;4.93;;;;;;;26.04;47.68;99907.78;4983850;28;20054;-80
2022/08/15 05:54:29;;;;;;;7.32;6.07;;;;;;;25.99;47.56;99917.47;4988053;28;20518;-81
2022/08/15 05:57:38;;;;;;;6.25;5.30;;;;;;;25.98;47.64;99910.31;4985621;28;20046;-81
2022/08/15 06:00:26;;;;;;;6.72;5.45;;;;;;;25.96;47.31;99909.97;4986651;28;20050;-82
2022/08/15 06:03:27;;;;;;;10.27;5.47;;;;;;;25.96;47.31;99913.53;4986238;28;20046;-81
2022/08/15 06:06:19;;;;;;;10.85;6.03;;;;;;;25.93;47.64;99910.84;4971465;28;20074;-82
2022/08/15 06:09:28;;;;;;;6.88;6.18;;;;;;;25.95;47.95;99914.00;4973739;28;20046;-81
2022/08/15 06:12:34;;;;;;;11.65;6.28;;;;;;;25.96;48.27;99915.53;4981128;28;20066;-81
2022/08/15 06:15:33;;;;;;;9.93;6.53;;;;;;;25.97;48.05;99914.31;4987535;28;20046;-81
2022/08/15 06:18:22;;;;;;;7.10;5.85;;;;;;;25.98;48.43;99915.88;4985918;28;20053;-81
2022/08/15 06:21:20;;;;;;;6.63;5.93;;;;;;;25.97;48.00;99914.31;4985777;28;20046;-82
2022/08/15 06:24:31;;;;;;;10.70;5.97;;;;;;;25.95;48.36;99917.56;4986935;28;20053;-81
2022/08/15 06:27:36;;;;;;;6.47;5.10;;;;;;;25.95;48.20;99919.56;4989910;28;20522;-81
2022/08/15 06:30:31;;;;;;;8.27;5.25;;;;;;;25.94;47.37;99921.56;4986402;28;20049;-81
2022/08/15 06:33:26;;;;;;;9.48;5.10;;;;;;;25.93;46.92;99917.22;4983515;28;20053;-82
2022/08/15 06:36:20;;;;;;;12.30;4.90;;;;;;;25.94;46.75;99912.44;4960568;28;20043;-81
2022/08/15 06:39:46;;;;;;;9.55;4.32;;;;;;;25.96;47.09;99921.91;4971396;28;20042;-81
2022/08/15 06:42:42;;;;;;;5.57;4.97;;;;;;;25.97;46.93;99915.09;4961629;29;20046;-81
2022/08/15 06:45:36;;;;;;;7.85;5.00;;;;;;;26.01;46.90;99915.00;4967312;29;20062;-82
2022/08/15 06:48:24;;;;;;;8.00;5.07;;;;;;;26.03;46.76;99912.56;5074280;23;20064;-60
2022/08/15 06:51:11;;;;;;;7.38;4.60;;;;;;;26.05;46.68;99915.72;5006772;28;20048;-59
2022/08/15 06:54:01;;;;;;;5.63;5.05;;;;;;;26.08;46.75;99923.19;4994287;28;20054;-59
2022/08/15 06:57:17;;;;;;;6.65;5.22;;;;;;;26.12;46.67;99920.28;4991710;28;20049;-60
2022/08/15 07:00:09;;;;;;;6.78;5.50;;;;;;;26.15;46.74;99923.00;5001561;28;20044;-59
2022/08/15 07:03:47;;;;;;;7.70;5.40;;;;;;;26.18;47.02;99916.53;4990472;28;20050;-59
2022/08/15 07:06:49;;;;;;;10.23;5.38;;;;;;;26.23;46.86;99910.44;4986880;28;20413;-61
2022/08/15 07:09:37;;;;;;;8.90;4.93;;;;;;;26.26;46.64;99909.53;4993454;28;20049;-59
2022/08/15 07:12:21;;;;;;;7.75;4.65;;;;;;;26.28;46.67;99904.31;4985305;28;20053;-59
2022/08/15 07:15:19;;;;;;;7.82;4.90;;;;;;;26.34;46.37;99915.72;4992997;28;20053;-61
2022/08/15 07:18:14;;;;;;;6.60;5.25;;;;;;;26.40;46.44;99913.94;4993631;28;20516;-59
2022/08/15 07:21:09;;;;;;;9.85;5.20;;;;;;;26.43;46.58;99918.63;4992937;28;20058;-59
2022/08/15 07:24:11;;;;;;;8.82;5.25;;;;;;;26.48;46.65;99928.47;4993809;28;20053;-60
2022/08/15 07:27:03;;;;;;;9.43;5.40;;;;;;;26.53;46.56;99933.50;4986884;28;20061;-59
2022/08/15 07:29:58;;;;;;;10.10;5.20;;;;;;;26.57;46.87;99923.00;4982423;28;20659;-59
2022/08/15 07:32:56;;;;;;;6.90;4.97;;;;;;;26.60;46.44;99928.50;4993255;28;20521;-61
2022/08/15 07:35:42;;;;;;;7.30;5.38;;;;;;;26.63;46.89;99926.81;4988384;28;20049;-59
2022/08/15 07:38:32;;;;;;;6.30;4.15;;;;;;;26.71;46.46;99933.75;5011577;28;20515;-59
2022/08/15 07:41:25;;;;;;;7.13;4.15;;;;;;;26.74;46.79;99930.84;5003864;28;20049;-59
2022/08/15 07:44:27;;;;;;;33.67;9.18;;;;;;;26.78;46.96;99934.31;4986496;28;20057;-59
2022/08/15 07:47:25;;;;;;;9.88;4.70;;;;;;;26.82;46.06;99942.56;4995951;28;20056;-60
2022/08/15 07:50:10;;;;;;;10.70;5.15;;;;;;;26.85;46.05;99940.91;5012815;28;20049;-60
2022/08/15 07:53:04;;;;;;;37.85;7.68;;;;;;;26.91;46.42;99948.31;5015127;28;20409;-61
2022/08/15 07:56:09;;;;;;;;;;;;;;;26.95;46.35;99951.78;5012976;28;20113;-59
2022/08/15 07:59:13;;;;;;;13.98;4.45;;;;;;;26.99;46.15;99952.44;5016636;28;19991;-60
2022/08/15 08:02:29;;;;;;;7.00;4.03;;;;;;;27.05;46.08;99963.84;5013706;28;20061;-59
2022/08/15 08:05:16;;;;;;;10.75;4.95;;;;;;;27.09;46.11;99956.13;5012193;28;20425;-59
2022/08/15 08:08:06;;;;;;;9.70;3.95;;;;;;;27.12;45.25;99958.06;5014606;28;20409;-59
2022/08/15 08:11:09;;;;;;;5.53;4.32;;;;;;;27.19;45.69;99964.19;5011420;28;20053;-59
2022/08/15 08:14:23;;;;;;;8.05;3.65;;;;;;;27.26;44.91;99973.56;5015381;28;20052;-59
2022/08/15 08:17:16;;;;;;;8.52;3.30;;;;;;;27.32;44.69;99974.59;5011787;28;20405;-58
2022/08/15 08:20:30;;;;;;;13.27;4.07;;;;;;;27.36;44.82;99973.22;5011774;28;20048;-59
2022/08/15 08:23:30;;;;;;;12.48;5.03;;;;;;;27.41;44.73;99971.88;5011632;28;20061;-60
2022/08/15 08:26:24;;;;;;;6.60;2.97;;;;;;;27.47;43.93;99978.47;5012115;28;20408;-59
2022/08/15 08:29:22;;;;;;;5.60;2.50;;;;;;;27.52;44.12;99992.69;5011587;28;20048;-59
2022/08/15 08:32:17;;;;;;;4.72;2.60;;;;;;;27.59;44.23;99995.25;5011434;28;20438;-59
2022/08/15 08:35:39;;;;;;;5.30;2.80;;;;;;;27.65;43.82;99987.06;5011533;28;20432;-59
2022/08/15 08:38:29;;;;;;;7.15;2.70;;;;;;;27.71;43.81;99982.50;5011298;28;20401;-61
2022/08/15 08:41:37;;;;;;;3.60;2.25;;;;;;;27.79;43.55;99977.44;5011219;28;20053;-61
2022/08/15 08:44:25;;;;;;;3.45;1.83;;;;;;;27.83;43.21;99978.13;5011489;28;20044;-60
2022/08/15 08:47:16;;;;;;;2.83;2.10;;;;;;;27.91;42.58;99988.59;5011408;28;20044;-60
2022/08/15 08:50:21;;;;;;;4.97;1.70;;;;;;;28.01;42.39;99990.25;5011218;28;20065;-60
2022/08/15 08:53:28;;;;;;;;;;;;;;;28.07;42.12;99976.47;5016157;28;20053;-58
2022/08/15 08:56:20;;;;;;;2.65;1.70;;;;;;;28.13;41.72;99973.91;5011437;28;19921;-61
2022/08/15 08:59:08;;;;;;;2.95;1.80;;;;;;;28.19;41.78;99975.66;5011461;28;20048;-60
2022/08/15 09:02:09;;;;;;;4.40;1.85;;;;;;;28.25;41.91;99987.84;5014401;28;20529;-61
2022/08/15 09:05:07;;;;;;;2.88;1.80;;;;;;;28.30;41.53;99984.47;5011068;28;20077;-60
2022/08/15 09:07:58;;;;;;;3.00;1.83;;;;;;;28.36;41.50;99985.44;5011165;28;20405;-59
2022/08/15 09:10:49;;;;;;;5.78;1.90;;;;;;;28.41;41.62;99986.88;5010811;28;20045;-59
2022/08/15 09:13:41;;;;;;;4.50;2.22;;;;;;;28.46;40.99;99986.28;5016635;28;20307;-59
2022/08/15 09:16:32;;;;;;;7.50;1.90;;;;;;;28.50;41.46;99976.53;5011116;28;20397;-59
2022/08/15 09:19:27;;;;;;;2.80;1.65;;;;;;;28.58;41.65;99977.06;5010957;28;20049;-59
2022/08/15 09:22:13;;;;;;;4.20;2.55;;;;;;;28.64;41.68;99986.44;5014973;28;20521;-60
2022/08/15 09:24:58;;;;;;;4.35;1.92;;;;;;;28.67;41.05;99987.53;5015148;28;20515;-61
2022/08/15 09:27:59;;;;;;;5.97;2.38;;;;;;;28.72;40.93;99979.34;5014776;28;20048;-60
2022/08/15 09:30:48;;;;;;;5.43;2.10;;;;;;;28.78;41.22;99963.53;5014695;28;20527;-60
2022/08/15 09:33:51;;;;;;;2.83;2.17;;;;;;;28.82;41.00;99964.19;5014922;28;20053;-59
2022/08/15 09:36:52;;;;;;;5.10;1.90;;;;;;;28.87;40.97;99962.78;5015030;28;20048;-59
2022/08/15 09:40:06;;;;;;;6.70;2.15;;;;;;;28.95;40.32;99971.72;5002342;28;20511;-59
2022/08/15 09:43:21;;;;;;;7.82;2.13;;;;;;;29.00;40.10;99965.53;5014665;28;20049;-59
2022/08/15 09:46:25;;;;;;;5.53;1.80;;;;;;;29.05;39.48;99968.50;5014759;28;20049;-60
2022/08/15 09:49:16;;;;;;;8.43;2.38;;;;;;;29.11;39.84;99971.47;5014450;28;20052;-59
2022/08/15 09:52:18;;;;;;;4.93;1.95;;;;;;;29.14;38.31;99957.34;5014750;28;20057;-59
2022/08/15 09:55:20;;;;;;;6.78;2.63;;;;;;;29.19;38.54;99958.75;5014429;28;20519;-59
2022/08/15 09:58:20;;;;;;;2.60;2.03;;;;;;;29.21;38.55;99959.84;5014441;28;20045;-58
2022/08/15 10:01:30;;;;;;;4.90;2.22;;;;;;;29.25;38.62;99956.91;5014976;28;20057;-60
2022/08/15 10:04:18;;;;;;;7.70;3.85;;;;;;;29.29;38.97;99941.53;5002783;28;20096;-59
2022/08/15 10:07:04;;;;;;;3.45;2.22;;;;;;;29.33;39.31;99944.19;5015816;28;20045;-59
2022/08/15 10:10:01;;;;;;;4.47;2.35;;;;;;;29.42;39.07;99938.63;5018593;28;20405;-60
2022/08/15 10:13:04;;;;;;;3.13;2.83;;;;;;;29.50;38.58;99927.91;5016973;28;20053;-60
2022/08/15 10:15:50;;;;;;;3.47;1.88;;;;;;;29.53;36.82;99922.16;5014155;28;20049;-59
2022/08/15 10:18:38;;;;;;;3.45;1.98;;;;;;;29.63;37.28;99942.56;5013884;28;20045;-59
2022/08/15 10:21:32;;;;;;;5.05;1.70;;;;;;;29.67;36.01;99937.56;5014022;28;20409;-59
2022/08/15 10:24:21;;;;;;;8.07;3.38;;;;;;;29.71;36.65;99932.63;5014137;28;20417;-60
2022/08/15 10:27:09;;;;;;;7.43;3.40;;;;;;;29.70;37.70;99937.44;5014049;28;20053;-59
2022/08/15 10:30:10;;;;;;;7.75;3.30;;;;;;;29.72;38.26;99936.97;5013668;28;20053;-60
2022/08/15 10:32:57;;;;;;;11.10;3.75;;;;;;;29.69;38.51;99938.69;5018293;28;20326;-59
2022/08/15 10:35:45;;;;;;;7.65;2.97;;;;;;;29.71;38.03;99936.19;5013879;28;20052;-61
2022/08/15 10:38:32;;;;;;;5.57;2.28;;;;;;;29.73;38.06;99928.09;5013627;28;20045;-60
2022/08/15 10:41:25;;;;;;;8.02;3.25;;;;;;;29.75;37.59;99925.63;5014975;28;20041;-59
2022/08/15 10:44:48;;;;;;;5.07;2.63;;;;;;;29.77;37.88;99920.31;5013679;28;20424;-59
2022/08/15 10:48:00;;;;;;;3.75;1.90;;;;;;;29.78;37.41;99915.47;5013591;28;20053;-60
2022/08/15 10:50:57;;;;;;;2.47;1.67;;;;;;;29.80;37.40;99917.81;5013037;28;20045;-59
2022/08/15 10:53:59;;;;;;;6.47;2.95;;;;;;;29.81;38.04;99908.19;5013411;28;20425;-59
2022/08/15 10:56:44;;;;;;;7.57;3.67;;;;;;;29.77;38.24;99908.31;5015806;28;20048;-59
2022/08/15 10:59:41;;;;;;;5.75;2.70;;;;;;;29.80;37.80;99898.19;5013077;28;20060;-60
2022/08/15 11:02:47;;;;;;;8.85;3.10;;;;;;;29.82;37.66;99904.13;5013076;28;20069;-60
2022/08/15 11:05:33;;;;;;;5.13;3.30;;;;;;;29.84;36.41;99898.81;5013620;28;20432;-60
2022/08/15 11:08:19;;;;;;;6.55;2.72;;;;;;;29.87;36.05;99901.47;5013473;28;20504;-61
2022/08/15 11:11:10;;;;;;;7.68;3.17;;;;;;;29.90;36.49;99892.16;5012622;28;20049;-61
2022/08/15 11:13:58;;;;;;;5.35;3.10;;;;;;;29.92;36.95;99891.72;4998952;28;20508;-60
2022/08/15 11:16:51;;;;;;;5.85;2.30;;;;;;;29.94;36.80;99889.19;5012971;28;20116;-60
2022/08/15 11:19:44;;;;;;;4.68;2.67;;;;;;;29.96;37.07;99892.31;5012866;28;20066;-60
2022/08/15 11:22:31;;;;;;;2.20;1.35;;;;;;;29.97;35.34;99888.28;5013028;28;20049;-60
2022/08/15 11:25:20;;;;;;;1.98;1.40;;;;;;;30.00;34.72;99882.50;5012869;28;20405;-59
2022/08/15 11:28:18;;;;;;;2.60;1.60;;;;;;;30.11;34.61;99884.84;5012792;28;20400;-60
2022/08/15 11:31:11;;;;;;;4.97;1.67;;;;;;;30.14;34.87;99881.06;5012235;28;20060;-59
2022/08/15 11:33:55;;;;;;;9.23;2.13;;;;;;;30.15;35.15;99879.84;5015944;28;20049;-60
2022/08/15 11:36:41;;;;;;;7.93;2.72;;;;;;;30.16;35.94;99884.22;5012853;28;20068;-60
2022/08/15 11:39:29;;;;;;;6.45;2.97;;;;;;;30.15;36.99;99877.03;5012627;28;20060;-60
2022/08/15 11:42:20;;;;;;;3.78;2.10;;;;;;;30.13;36.78;99879.50;5012319;28;20045;-60
2022/08/15 11:45:19;;;;;;;5.57;2.42;;;;;;;30.14;36.17;99881.84;5011777;28;20349;-59
2022/08/15 11:48:12;;;;;;;6.90;2.70;;;;;;;30.14;36.45;99878.28;5012351;28;20516;-60
2022/08/15 11:51:03;;;;;;;3.47;2.07;;;;;;;30.12;36.20;99875.94;5014062;28;20053;-59
2022/08/15 11:54:20;;;;;;;4.45;2.55;;;;;;;30.12;36.75;99875.19;5012603;28;20656;-60
2022/08/15 11:57:07;;;;;;;4.05;2.42;;;;;;;30.12;36.52;99883.59;5012460;28;20429;-59
2022/08/15 12:00:00;;;;;;;8.98;2.85;;;;;;;30.11;36.68;99882.03;5011899;28;20044;-60
2022/08/15 12:02:45;;;;;;;6.20;2.50;;;;;;;30.09;36.64;99881.72;5012050;28;20052;-60
2022/08/15 12:05:34;;;;;;;3.20;2.20;;;;;;;30.07;37.07;99881.41;5012127;28;20045;-59
2022/08/15 12:08:32;;;;;;;4.65;1.58;;;;;;;30.07;35.21;99875.81;5012056;28;20052;-59
2022/08/15 12:11:24;;;;;;;5.60;1.67;;;;;;;30.07;35.26;99873.00;5011555;28;20057;-59
2022/08/15 12:14:29;;;;;;;3.97;1.52;;;;;;;30.09;34.96;99874.06;5012109;28;20041;-59
2022/08/15 12:17:25;;;;;;;5.28;2.10;;;;;;;30.12;34.89;99877.97;5012080;28;20045;-59
2022/08/15 12:20:10;;;;;;;4.97;1.80;;;;;;;30.13;34.88;99880.28;5014013;28;20041;-60
2022/08/15 12:23:20;;;;;;;3.83;1.48;;;;;;;30.19;34.75;99874.84;5011760;28;20045;-59
2022/08/15 12:26:08;;;;;;;3.85;1.50;;;;;;;30.21;34.80;99877.19;5011742;28;20053;-59
2022/08/15 12:28:55;;;;;;;3.65;1.73;;;;;;;30.21;35.33;99866.75;4997786;28;20049;-59
2022/08/15 12:31:41;;;;;;;5.68;1.80;;;;;;;30.21;35.65;99869.53;5011751;28;20068;-59
2022/08/15 12:34:38;;;;;;;4.10;2.08;;;;;;;30.22;35.15;99864.72;5012035;28;20049;-59
2022/08/15 12:37:25;;;;;;;2.25;1.67;;;;;;;30.22;35.69;99857.09;5012038;28;20397;-60
2022/08/15 12:40:10;;;;;;;3.35;1.70;;;;;;;30.21;35.15;99863.94;5011403;28;20060;-60
2022/08/15 12:42:55;;;;;;;4.00;2.03;;;;;;;30.20;35.71;99859.56;5011559;28;20049;-60
2022/08/15 12:45:40;;;;;;;2.47;1.52;;;;;;;30.20;35.84;99862.38;4997196;28;20104;-60
2022/08/15 12:48:26;;;;;;;;;;;;;;;30.19;36.56;99860.81;5022435;22;20057;-80
2022/08/15 12:51:12;;;;;;;;;;;;;;;30.16;37.11;99856.94;4995024;28;20378;-80
2022/08/15 12:53:56;;;;;;;;;;;;;;;30.16;36.31;99854.13;4994358;28;20297;-79
2022/08/15 12:56:42;;;;;;;;;;;;;;;30.20;35.06;99847.56;4994041;28;20290;-79
2022/08/15 12:59:27;;;;;;;;;;;;;;;30.21;35.62;99847.09;4993841;28;19914;-80
2022/08/15 13:02:13;;;;;;;;;;;;;;;30.25;35.78;99844.91;4995706;28;19914;-81
2022/08/15 13:04:57;;;;;;;;;;;;;;;30.27;35.57;99836.81;4993913;28;19914;-80
2022/08/15 13:07:42;;;;;;;;;;;;;;;30.30;35.03;99835.06;4993906;28;19913;-80
2022/08/15 13:10:27;;;;;;;;;;;;;;;30.30;35.80;99837.88;4996026;28;19922;-80
2022/08/15 13:13:12;;;;;;;;;;;;;;;30.30;35.14;99827.44;4993659;28;19913;-79
2022/08/15 13:15:56;;;;;;;;;;;;;;;30.35;35.10;99835.22;4997949;28;19913;-79
2022/08/15 13:18:41;;;;;;;;;;;;;;;30.40;34.53;99828.19;4996340;28;19914;-79
2022/08/15 13:24:29;;;;;;;;;;;;;;;30.54;33.80;99819.13;4997555;28;19914;-80
2022/08/15 13:27:13;;;;;;;;;;;;;;;30.60;34.29;99817.22;4995421;28;19914;-79
2022/08/15 13:29:59;;;;;;;;;;;;;;;30.63;34.92;99812.72;4993297;28;19914;-80
2022/08/15 13:32:44;;;;;;;;;;;;;;;30.63;35.46;99815.53;4997395;28;19918;-80
2022/08/15 13:35:29;;;;;;;;;;;;;;;30.62;35.38;99808.34;4995946;28;19914;-80
2022/08/15 13:38:14;;;;;;;;;;;;;;;30.62;35.47;99805.53;4993842;28;19914;-80